sensor_id;sensor_type;location;lat;lon;timestamp;temperature;humidity
1005;DHT22;491;53.480;10.174;2022-10-16T00:00:31;13.60;99.90
1005;DHT22;491;53.480;10.174;2022-10-16T00:02:56;13.50;99.90
1005;DHT22;491;53.480;10.174;2022-10-16T00:05:22;13.50;99.90
1005;DHT22;491;53.480;10.174;2022-10-16T00:07:47;13.50;99.90
1005;DHT22;491;53.480;10.174;2022-10-16T00:10:13;13.50;99.90
1005;DHT22;491;53.480;10.174;2022-10-16T00:12:38;13.40;99.90
1005;DHT22;491;53.480;10.174;2022-10-16T00:15:04;13.40;99.90
1005;DHT22;491;53.480;10.174;2022-10-16T00:17:31;13.40;99.90
1005;DHT22;491;53.480;10.174;2022-10-16T00:19:56;13.40;99.90
1005;DHT22;491;53.480;10.174;2022-10-16T00:22:22;13.40;99.90
1005;DHT22;491;53.480;10.174;2022-10-16T00:24:47;13.30;99.90
1005;DHT22;491;53.480;10.174;2022-10-16T00:27:13;13.40;99.90
1005;DHT22;491;53.480;10.174;2022-10-16T00:29:38;13.30;99.90
1005;DHT22;491;53.480;10.174;2022-10-16T00:32:04;13.30;99.90
1005;DHT22;491;53.480;10.174;2022-10-16T00:34:29;13.30;99.90
1005;DHT22;491;53.480;10.174;2022-10-16T00:36:55;13.20;99.90
1005;DHT22;491;53.480;10.174;2022-10-16T00:39:21;13.20;99.90
1005;DHT22;491;53.480;10.174;2022-10-16T00:41:49;13.20;99.90
1005;DHT22;491;53.480;10.174;2022-10-16T00:45:08;13.20;99.90
1005;DHT22;491;53.480;10.174;2022-10-16T00:47:43;13.20;99.90
1005;DHT22;491;53.480;10.174;2022-10-16T00:50:33;13.10;99.90
1005;DHT22;491;53.480;10.174;2022-10-16T00:53:02;13.10;99.90
1005;DHT22;491;53.480;10.174;2022-10-16T00:55:28;13.10;99.90
1005;DHT22;491;53.480;10.174;2022-10-16T00:57:59;13.00;99.90
1005;DHT22;491;53.480;10.174;2022-10-16T01:00:26;13.00;99.90
1005;DHT22;491;53.480;10.174;2022-10-16T01:03:25;13.00;99.90
1005;DHT22;491;53.480;10.174;2022-10-16T01:06:07;13.00;99.90
1005;DHT22;491;53.480;10.174;2022-10-16T01:14:32;13.00;99.90
1005;DHT22;491;53.480;10.174;2022-10-16T01:17:16;13.00;99.90
1005;DHT22;491;53.480;10.174;2022-10-16T01:20:10;13.00;99.90
1005;DHT22;491;53.480;10.174;2022-10-16T01:28:34;13.00;99.90
1005;DHT22;491;53.480;10.174;2022-10-16T01:31:02;13.00;99.90
1005;DHT22;491;53.480;10.174;2022-10-16T01:33:44;13.00;99.90
1005;DHT22;491;53.480;10.174;2022-10-16T01:36:14;12.90;99.90
1005;DHT22;491;53.480;10.174;2022-10-16T01:38:43;12.80;99.90
1005;DHT22;491;53.480;10.174;2022-10-16T01:41:14;12.90;99.90
1005;DHT22;491;53.480;10.174;2022-10-16T01:43:48;12.80;99.90
1005;DHT22;491;53.480;10.174;2022-10-16T01:46:18;12.80;99.90
1005;DHT22;491;53.480;10.174;2022-10-16T01:48:43;12.70;99.90
1005;DHT22;491;53.480;10.174;2022-10-16T01:51:12;12.80;99.90
1005;DHT22;491;53.480;10.174;2022-10-16T01:53:40;12.80;99.90
1005;DHT22;491;53.480;10.174;2022-10-16T01:56:09;12.80;99.90
1005;DHT22;491;53.480;10.174;2022-10-16T01:58:40;12.90;99.90
1005;DHT22;491;53.480;10.174;2022-10-16T02:01:08;12.90;99.90
1005;DHT22;491;53.480;10.174;2022-10-16T02:03:37;12.90;99.90
1005;DHT22;491;53.480;10.174;2022-10-16T02:06:05;12.80;99.90
1005;DHT22;491;53.480;10.174;2022-10-16T02:08:30;12.90;99.90
1005;DHT22;491;53.480;10.174;2022-10-16T02:10:57;12.80;99.90
1005;DHT22;491;53.480;10.174;2022-10-16T02:13:30;12.70;99.90
1005;DHT22;491;53.480;10.174;2022-10-16T02:15:58;12.70;99.90
1005;DHT22;491;53.480;10.174;2022-10-16T02:18:24;12.70;99.90
1005;DHT22;491;53.480;10.174;2022-10-16T02:23:45;12.80;99.90
1005;DHT22;491;53.480;10.174;2022-10-16T02:26:15;12.70;99.90
1005;DHT22;491;53.480;10.174;2022-10-16T02:28:45;12.70;99.90
1005;DHT22;491;53.480;10.174;2022-10-16T02:31:16;12.70;99.90
1005;DHT22;491;53.480;10.174;2022-10-16T02:33:44;12.70;99.90
1005;DHT22;491;53.480;10.174;2022-10-16T02:36:11;12.70;99.90
1005;DHT22;491;53.480;10.174;2022-10-16T02:38:37;12.60;99.90
1005;DHT22;491;53.480;10.174;2022-10-16T02:41:04;12.60;99.90
1005;DHT22;491;53.480;10.174;2022-10-16T02:43:30;12.60;99.90
1005;DHT22;491;53.480;10.174;2022-10-16T02:45:55;12.60;99.90
1005;DHT22;491;53.480;10.174;2022-10-16T02:48:21;12.50;99.90
1005;DHT22;491;53.480;10.174;2022-10-16T02:50:46;12.50;99.90
1005;DHT22;491;53.480;10.174;2022-10-16T02:53:12;12.50;99.90
1005;DHT22;491;53.480;10.174;2022-10-16T02:55:37;12.50;99.90
1005;DHT22;491;53.480;10.174;2022-10-16T02:58:03;12.40;99.90
1005;DHT22;491;53.480;10.174;2022-10-16T03:00:28;12.40;99.90
1005;DHT22;491;53.480;10.174;2022-10-16T03:02:54;12.40;99.90
1005;DHT22;491;53.480;10.174;2022-10-16T03:05:19;12.30;99.90
1005;DHT22;491;53.480;10.174;2022-10-16T03:07:45;12.20;99.90
1005;DHT22;491;53.480;10.174;2022-10-16T03:10:10;12.20;99.90
1005;DHT22;491;53.480;10.174;2022-10-16T03:12:36;12.20;99.90
1005;DHT22;491;53.480;10.174;2022-10-16T03:15:01;12.10;99.90
1005;DHT22;491;53.480;10.174;2022-10-16T03:17:27;12.10;99.90
1005;DHT22;491;53.480;10.174;2022-10-16T03:19:53;12.10;99.90
1005;DHT22;491;53.480;10.174;2022-10-16T03:22:18;12.10;99.90
1005;DHT22;491;53.480;10.174;2022-10-16T03:24:43;12.00;99.90
1005;DHT22;491;53.480;10.174;2022-10-16T03:27:09;12.00;99.90
1005;DHT22;491;53.480;10.174;2022-10-16T03:29:35;12.00;99.90
1005;DHT22;491;53.480;10.174;2022-10-16T03:32:01;12.00;99.90
1005;DHT22;491;53.480;10.174;2022-10-16T03:34:26;12.00;99.90
1005;DHT22;491;53.480;10.174;2022-10-16T03:36:52;11.90;99.90
1005;DHT22;491;53.480;10.174;2022-10-16T03:39:18;11.90;99.90
1005;DHT22;491;53.480;10.174;2022-10-16T03:41:43;11.90;99.90
1005;DHT22;491;53.480;10.174;2022-10-16T03:44:09;11.90;99.90
1005;DHT22;491;53.480;10.174;2022-10-16T03:46:34;11.90;99.90
1005;DHT22;491;53.480;10.174;2022-10-16T03:49:00;11.90;99.90
1005;DHT22;491;53.480;10.174;2022-10-16T03:51:25;11.90;99.90
1005;DHT22;491;53.480;10.174;2022-10-16T03:53:51;11.80;99.90
1005;DHT22;491;53.480;10.174;2022-10-16T03:56:16;11.90;99.90
1005;DHT22;491;53.480;10.174;2022-10-16T03:58:42;11.90;99.90
1005;DHT22;491;53.480;10.174;2022-10-16T04:01:07;11.90;99.90
1005;DHT22;491;53.480;10.174;2022-10-16T04:03:33;11.90;99.90
1005;DHT22;491;53.480;10.174;2022-10-16T04:05:58;11.90;99.90
1005;DHT22;491;53.480;10.174;2022-10-16T04:08:24;12.00;99.90
1005;DHT22;491;53.480;10.174;2022-10-16T04:10:49;11.90;99.90
1005;DHT22;491;53.480;10.174;2022-10-16T04:13:15;11.90;99.90
1005;DHT22;491;53.480;10.174;2022-10-16T04:15:46;11.80;99.90
1005;DHT22;491;53.480;10.174;2022-10-16T04:18:12;11.70;99.90
1005;DHT22;491;53.480;10.174;2022-10-16T04:20:37;11.70;99.90
1005;DHT22;491;53.480;10.174;2022-10-16T04:23:03;11.70;99.90
1005;DHT22;491;53.480;10.174;2022-10-16T04:25:29;11.70;99.90
1005;DHT22;491;53.480;10.174;2022-10-16T04:27:55;11.70;99.90
1005;DHT22;491;53.480;10.174;2022-10-16T04:30:21;11.70;99.90
1005;DHT22;491;53.480;10.174;2022-10-16T04:32:51;11.70;99.90
1005;DHT22;491;53.480;10.174;2022-10-16T04:35:18;11.60;99.90
1005;DHT22;491;53.480;10.174;2022-10-16T04:37:44;11.60;99.90
1005;DHT22;491;53.480;10.174;2022-10-16T04:40:10;11.60;99.90
1005;DHT22;491;53.480;10.174;2022-10-16T04:42:35;11.60;99.90
1005;DHT22;491;53.480;10.174;2022-10-16T04:45:01;11.60;99.90
1005;DHT22;491;53.480;10.174;2022-10-16T04:47:26;11.60;99.90
1005;DHT22;491;53.480;10.174;2022-10-16T04:49:52;11.60;99.90
1005;DHT22;491;53.480;10.174;2022-10-16T04:52:17;11.70;99.90
1005;DHT22;491;53.480;10.174;2022-10-16T04:54:44;11.70;99.90
1005;DHT22;491;53.480;10.174;2022-10-16T04:57:10;11.70;99.90
1005;DHT22;491;53.480;10.174;2022-10-16T04:59:36;11.60;99.90
1005;DHT22;491;53.480;10.174;2022-10-16T05:02:01;11.60;99.90
1005;DHT22;491;53.480;10.174;2022-10-16T05:04:27;11.50;99.90
1005;DHT22;491;53.480;10.174;2022-10-16T05:06:52;11.60;99.90
1005;DHT22;491;53.480;10.174;2022-10-16T05:09:18;11.60;99.90
1005;DHT22;491;53.480;10.174;2022-10-16T05:11:43;11.60;99.90
1005;DHT22;491;53.480;10.174;2022-10-16T05:14:09;11.50;99.90
1005;DHT22;491;53.480;10.174;2022-10-16T05:16:34;11.40;99.90
1005;DHT22;491;53.480;10.174;2022-10-16T05:19:00;11.50;99.90
1005;DHT22;491;53.480;10.174;2022-10-16T05:21:25;11.50;99.90
1005;DHT22;491;53.480;10.174;2022-10-16T05:23:53;11.50;99.90
1005;DHT22;491;53.480;10.174;2022-10-16T05:26:19;11.50;99.90
1005;DHT22;491;53.480;10.174;2022-10-16T05:28:45;11.50;99.90
1005;DHT22;491;53.480;10.174;2022-10-16T05:31:10;11.50;99.90
1005;DHT22;491;53.480;10.174;2022-10-16T05:33:36;11.40;99.90
1005;DHT22;491;53.480;10.174;2022-10-16T05:36:06;11.50;99.90
1005;DHT22;491;53.480;10.174;2022-10-16T05:38:33;11.50;99.90
1005;DHT22;491;53.480;10.174;2022-10-16T05:40:59;11.40;99.90
1005;DHT22;491;53.480;10.174;2022-10-16T05:43:24;11.40;99.90
1005;DHT22;491;53.480;10.174;2022-10-16T05:45:54;11.30;99.90
1005;DHT22;491;53.480;10.174;2022-10-16T05:48:20;11.30;99.90
1005;DHT22;491;53.480;10.174;2022-10-16T05:50:45;11.30;99.90
1005;DHT22;491;53.480;10.174;2022-10-16T05:53:10;11.30;99.90
1005;DHT22;491;53.480;10.174;2022-10-16T05:55:36;11.30;99.90
1005;DHT22;491;53.480;10.174;2022-10-16T05:58:01;11.40;99.90
1005;DHT22;491;53.480;10.174;2022-10-16T06:00:27;11.40;99.90
1005;DHT22;491;53.480;10.174;2022-10-16T06:02:53;11.40;99.90
1005;DHT22;491;53.480;10.174;2022-10-16T06:05:19;11.40;99.90
1005;DHT22;491;53.480;10.174;2022-10-16T06:07:44;11.40;99.90
1005;DHT22;491;53.480;10.174;2022-10-16T06:10:09;11.40;99.90
1005;DHT22;491;53.480;10.174;2022-10-16T06:12:35;11.50;99.90
1005;DHT22;491;53.480;10.174;2022-10-16T06:15:00;11.40;99.90
1005;DHT22;491;53.480;10.174;2022-10-16T06:17:26;11.40;99.90
1005;DHT22;491;53.480;10.174;2022-10-16T06:19:51;11.50;99.90
1005;DHT22;491;53.480;10.174;2022-10-16T06:22:17;11.60;99.90
1005;DHT22;491;53.480;10.174;2022-10-16T06:24:42;11.60;99.90
1005;DHT22;491;53.480;10.174;2022-10-16T06:27:08;11.70;99.90
1005;DHT22;491;53.480;10.174;2022-10-16T06:29:33;11.70;99.90
1005;DHT22;491;53.480;10.174;2022-10-16T06:31:59;11.70;99.90
1005;DHT22;491;53.480;10.174;2022-10-16T06:34:24;11.70;99.90
1005;DHT22;491;53.480;10.174;2022-10-16T06:36:50;11.70;99.90
1005;DHT22;491;53.480;10.174;2022-10-16T06:39:15;11.80;99.90
1005;DHT22;491;53.480;10.174;2022-10-16T06:41:41;11.80;99.90
1005;DHT22;491;53.480;10.174;2022-10-16T06:44:07;11.80;99.90
1005;DHT22;491;53.480;10.174;2022-10-16T06:46:33;11.80;99.90
1005;DHT22;491;53.480;10.174;2022-10-16T06:48:59;11.80;99.90
1005;DHT22;491;53.480;10.174;2022-10-16T06:51:25;11.80;99.90
1005;DHT22;491;53.480;10.174;2022-10-16T06:53:53;11.80;99.90
1005;DHT22;491;53.480;10.174;2022-10-16T06:56:24;11.80;99.90
1005;DHT22;491;53.480;10.174;2022-10-16T06:58:50;11.90;99.90
1005;DHT22;491;53.480;10.174;2022-10-16T07:01:24;12.00;99.90
1005;DHT22;491;53.480;10.174;2022-10-16T07:03:49;12.30;99.90
1005;DHT22;491;53.480;10.174;2022-10-16T07:06:17;12.40;99.90
1005;DHT22;491;53.480;10.174;2022-10-16T07:08:45;12.50;99.90
1005;DHT22;491;53.480;10.174;2022-10-16T07:11:16;12.70;99.90
1005;DHT22;491;53.480;10.174;2022-10-16T07:13:43;12.80;99.90
1005;DHT22;491;53.480;10.174;2022-10-16T07:16:19;13.10;99.90
1005;DHT22;491;53.480;10.174;2022-10-16T07:18:45;13.30;99.90
1005;DHT22;491;53.480;10.174;2022-10-16T07:21:16;13.40;99.90
1005;DHT22;491;53.480;10.174;2022-10-16T07:23:43;13.70;99.90
1005;DHT22;491;53.480;10.174;2022-10-16T07:26:09;14.30;99.90
1005;DHT22;491;53.480;10.174;2022-10-16T07:28:35;14.70;99.90
1005;DHT22;491;53.480;10.174;2022-10-16T07:31:06;14.40;99.90
1005;DHT22;491;53.480;10.174;2022-10-16T07:33:34;15.20;99.90
1005;DHT22;491;53.480;10.174;2022-10-16T07:35:59;17.30;1.00
1005;DHT22;491;53.480;10.174;2022-10-16T07:38:25;19.10;87.10
1005;DHT22;491;53.480;10.174;2022-10-16T07:41:02;20.00;99.90
1005;DHT22;491;53.480;10.174;2022-10-16T07:43:28;20.40;1.00
1005;DHT22;491;53.480;10.174;2022-10-16T07:45:57;20.30;1.00
1005;DHT22;491;53.480;10.174;2022-10-16T07:48:26;19.80;1.00
1005;DHT22;491;53.480;10.174;2022-10-16T07:50:52;20.20;1.00
1005;DHT22;491;53.480;10.174;2022-10-16T07:53:17;19.00;99.90
1005;DHT22;491;53.480;10.174;2022-10-16T07:55:43;18.10;1.00
1005;DHT22;491;53.480;10.174;2022-10-16T07:58:09;17.90;1.00
1005;DHT22;491;53.480;10.174;2022-10-16T08:00:36;18.20;99.90
1005;DHT22;491;53.480;10.174;2022-10-16T08:03:02;19.10;99.90
1005;DHT22;491;53.480;10.174;2022-10-16T08:05:31;21.00;1.00
1005;DHT22;491;53.480;10.174;2022-10-16T08:07:57;22.00;99.90
1005;DHT22;491;53.480;10.174;2022-10-16T08:10:25;19.80;1.00
1005;DHT22;491;53.480;10.174;2022-10-16T08:12:51;18.40;99.90
1005;DHT22;491;53.480;10.174;2022-10-16T08:15:17;17.90;99.90
1005;DHT22;491;53.480;10.174;2022-10-16T08:17:44;17.80;99.90
1005;DHT22;491;53.480;10.174;2022-10-16T08:20:10;17.70;1.00
1005;DHT22;491;53.480;10.174;2022-10-16T08:22:36;17.70;99.90
1005;DHT22;491;53.480;10.174;2022-10-16T08:25:01;17.20;1.00
1005;DHT22;491;53.480;10.174;2022-10-16T08:27:32;16.90;1.00
1005;DHT22;491;53.480;10.174;2022-10-16T08:29:58;17.10;1.00
1005;DHT22;491;53.480;10.174;2022-10-16T08:32:23;17.00;1.00
1005;DHT22;491;53.480;10.174;2022-10-16T08:34:49;17.40;1.00
1005;DHT22;491;53.480;10.174;2022-10-16T08:37:14;17.70;99.90
1005;DHT22;491;53.480;10.174;2022-10-16T08:39:40;18.50;99.90
1005;DHT22;491;53.480;10.174;2022-10-16T08:42:15;20.00;1.00
1005;DHT22;491;53.480;10.174;2022-10-16T08:45:12;21.60;1.00
1005;DHT22;491;53.480;10.174;2022-10-16T08:50:50;21.80;99.90
1005;DHT22;491;53.480;10.174;2022-10-16T08:56:07;24.10;99.90
1005;DHT22;491;53.480;10.174;2022-10-16T08:58:32;24.50;99.90
1005;DHT22;491;53.480;10.174;2022-10-16T09:01:01;24.20;99.90
1005;DHT22;491;53.480;10.174;2022-10-16T09:04:05;24.20;99.90
1005;DHT22;491;53.480;10.174;2022-10-16T09:06:50;24.00;99.90
1005;DHT22;491;53.480;10.174;2022-10-16T09:15:02;24.10;99.90
1005;DHT22;491;53.480;10.174;2022-10-16T09:20:23;24.30;99.90
1005;DHT22;491;53.480;10.174;2022-10-16T09:23:15;24.70;99.90
1005;DHT22;491;53.480;10.174;2022-10-16T09:25:45;25.20;99.90
1005;DHT22;491;53.480;10.174;2022-10-16T09:28:11;24.80;99.90
1005;DHT22;491;53.480;10.174;2022-10-16T09:30:37;24.50;99.90
1005;DHT22;491;53.480;10.174;2022-10-16T09:33:04;24.30;99.90
1005;DHT22;491;53.480;10.174;2022-10-16T09:35:44;24.70;99.90
1005;DHT22;491;53.480;10.174;2022-10-16T09:38:29;25.00;99.90
1005;DHT22;491;53.480;10.174;2022-10-16T09:41:01;25.40;99.90
1005;DHT22;491;53.480;10.174;2022-10-16T09:43:39;25.60;99.90
1005;DHT22;491;53.480;10.174;2022-10-16T09:46:08;25.90;99.90
1005;DHT22;491;53.480;10.174;2022-10-16T09:48:39;25.80;99.90
1005;DHT22;491;53.480;10.174;2022-10-16T09:51:26;26.30;99.90
1005;DHT22;491;53.480;10.174;2022-10-16T09:54:13;25.90;99.90
1005;DHT22;491;53.480;10.174;2022-10-16T09:56:39;26.30;99.90
1005;DHT22;491;53.480;10.174;2022-10-16T09:59:12;26.50;99.90
1005;DHT22;491;53.480;10.174;2022-10-16T10:01:44;22.70;99.90
1005;DHT22;491;53.480;10.174;2022-10-16T10:04:11;23.80;99.90
1005;DHT22;491;53.480;10.174;2022-10-16T10:06:43;24.20;99.90
1005;DHT22;491;53.480;10.174;2022-10-16T10:11:55;26.10;99.90
1005;DHT22;491;53.480;10.174;2022-10-16T10:14:24;26.20;99.90
1005;DHT22;491;53.480;10.174;2022-10-16T10:16:53;25.80;99.90
1005;DHT22;491;53.480;10.174;2022-10-16T10:19:27;25.70;99.90
1005;DHT22;491;53.480;10.174;2022-10-16T10:21:53;25.80;99.90
1005;DHT22;491;53.480;10.174;2022-10-16T10:24:19;25.10;99.90
1005;DHT22;491;53.480;10.174;2022-10-16T10:27:02;23.70;99.90
1005;DHT22;491;53.480;10.174;2022-10-16T10:32:29;21.90;99.90
1005;DHT22;491;53.480;10.174;2022-10-16T10:37:59;21.70;99.90
1005;DHT22;491;53.480;10.174;2022-10-16T10:40:35;22.30;99.90
1005;DHT22;491;53.480;10.174;2022-10-16T10:43:22;21.40;99.90
1005;DHT22;491;53.480;10.174;2022-10-16T10:46:01;21.30;99.90
1005;DHT22;491;53.480;10.174;2022-10-16T10:51:13;21.00;99.90
1005;DHT22;491;53.480;10.174;2022-10-16T10:53:54;21.40;99.90
1005;DHT22;491;53.480;10.174;2022-10-16T10:59:02;21.60;99.90
1005;DHT22;491;53.480;10.174;2022-10-16T11:01:55;21.10;99.90
1005;DHT22;491;53.480;10.174;2022-10-16T11:04:47;20.80;99.90
1005;DHT22;491;53.480;10.174;2022-10-16T11:07:40;20.60;99.90
1005;DHT22;491;53.480;10.174;2022-10-16T11:10:16;20.90;99.90
1005;DHT22;491;53.480;10.174;2022-10-16T11:12:44;21.20;99.90
1005;DHT22;491;53.480;10.174;2022-10-16T11:15:21;21.20;99.90
1005;DHT22;491;53.480;10.174;2022-10-16T11:20:42;22.80;99.90
1005;DHT22;491;53.480;10.174;2022-10-16T11:23:14;21.70;99.90
1005;DHT22;491;53.480;10.174;2022-10-16T11:25:43;21.10;99.90
1005;DHT22;491;53.480;10.174;2022-10-16T11:28:29;21.40;99.90
1005;DHT22;491;53.480;10.174;2022-10-16T11:31:24;21.00;99.90
1005;DHT22;491;53.480;10.174;2022-10-16T11:34:13;20.60;99.90
1005;DHT22;491;53.480;10.174;2022-10-16T11:36:50;20.30;99.90
1005;DHT22;491;53.480;10.174;2022-10-16T11:39:20;21.40;99.90
1005;DHT22;491;53.480;10.174;2022-10-16T11:41:53;23.50;99.90
1005;DHT22;491;53.480;10.174;2022-10-16T11:49:44;24.40;99.90
1005;DHT22;491;53.480;10.174;2022-10-16T11:55:39;21.30;99.90
1005;DHT22;491;53.480;10.174;2022-10-16T11:57:49;20.50;99.90
1005;DHT22;491;53.480;10.174;2022-10-16T12:00:27;20.10;99.90
1005;DHT22;491;53.480;10.174;2022-10-16T12:08:14;22.10;99.90
1005;DHT22;491;53.480;10.174;2022-10-16T12:10:45;20.50;99.90
1005;DHT22;491;53.480;10.174;2022-10-16T12:18:49;20.40;99.90
1005;DHT22;491;53.480;10.174;2022-10-16T12:21:18;20.70;99.90
1005;DHT22;491;53.480;10.174;2022-10-16T12:23:56;20.60;99.90
1005;DHT22;491;53.480;10.174;2022-10-16T12:26:25;20.10;99.90
1005;DHT22;491;53.480;10.174;2022-10-16T12:28:51;20.10;99.90
1005;DHT22;491;53.480;10.174;2022-10-16T12:31:17;19.80;99.90
1005;DHT22;491;53.480;10.174;2022-10-16T12:36:49;19.70;99.90
1005;DHT22;491;53.480;10.174;2022-10-16T12:39:23;19.80;99.90
1005;DHT22;491;53.480;10.174;2022-10-16T12:42:01;19.80;99.90
1005;DHT22;491;53.480;10.174;2022-10-16T12:44:32;19.40;99.90
1005;DHT22;491;53.480;10.174;2022-10-16T12:46:58;19.40;99.90
1005;DHT22;491;53.480;10.174;2022-10-16T12:49:37;19.40;99.90
1005;DHT22;491;53.480;10.174;2022-10-16T12:52:04;19.50;99.90
1005;DHT22;491;53.480;10.174;2022-10-16T12:54:35;19.90;99.90
1005;DHT22;491;53.480;10.174;2022-10-16T12:57:27;20.00;99.90
1005;DHT22;491;53.480;10.174;2022-10-16T13:00:31;20.00;99.90
1005;DHT22;491;53.480;10.174;2022-10-16T13:03:22;20.00;99.90
1005;DHT22;491;53.480;10.174;2022-10-16T13:11:32;20.20;99.90
1005;DHT22;491;53.480;10.174;2022-10-16T13:19:36;20.10;99.90
1005;DHT22;491;53.480;10.174;2022-10-16T13:23:12;19.50;99.90
1005;DHT22;491;53.480;10.174;2022-10-16T13:25:09;19.40;99.90
1005;DHT22;491;53.480;10.174;2022-10-16T13:27:55;19.40;99.90
1005;DHT22;491;53.480;10.174;2022-10-16T13:30:24;19.00;99.90
1005;DHT22;491;53.480;10.174;2022-10-16T13:33:00;18.90;99.90
1005;DHT22;491;53.480;10.174;2022-10-16T13:35:32;19.20;99.90
1005;DHT22;491;53.480;10.174;2022-10-16T13:40:36;19.60;99.90
1005;DHT22;491;53.480;10.174;2022-10-16T13:43:01;19.50;99.90
1005;DHT22;491;53.480;10.174;2022-10-16T13:45:27;19.40;99.90
1005;DHT22;491;53.480;10.174;2022-10-16T13:48:04;19.40;99.90
1005;DHT22;491;53.480;10.174;2022-10-16T13:50:29;19.50;99.90
1005;DHT22;491;53.480;10.174;2022-10-16T13:53:05;19.50;99.90
1005;DHT22;491;53.480;10.174;2022-10-16T13:55:31;19.60;99.90
1005;DHT22;491;53.480;10.174;2022-10-16T13:58:14;19.50;99.90
1005;DHT22;491;53.480;10.174;2022-10-16T14:00:41;19.50;99.90
1005;DHT22;491;53.480;10.174;2022-10-16T14:03:17;19.40;99.90
1005;DHT22;491;53.480;10.174;2022-10-16T14:05:48;19.30;99.90
1005;DHT22;491;53.480;10.174;2022-10-16T14:08:14;19.10;99.90
1005;DHT22;491;53.480;10.174;2022-10-16T14:10:40;19.00;99.90
1005;DHT22;491;53.480;10.174;2022-10-16T14:13:07;18.80;99.90
1005;DHT22;491;53.480;10.174;2022-10-16T14:15:35;18.70;99.90
1005;DHT22;491;53.480;10.174;2022-10-16T14:18:01;18.50;99.90
1005;DHT22;491;53.480;10.174;2022-10-16T14:20:32;18.50;99.90
1005;DHT22;491;53.480;10.174;2022-10-16T14:23:04;18.50;99.90
1005;DHT22;491;53.480;10.174;2022-10-16T14:25:31;18.50;99.90
1005;DHT22;491;53.480;10.174;2022-10-16T14:28:03;18.50;99.90
1005;DHT22;491;53.480;10.174;2022-10-16T14:30:29;18.40;99.90
1005;DHT22;491;53.480;10.174;2022-10-16T14:33:00;18.20;99.90
1005;DHT22;491;53.480;10.174;2022-10-16T14:35:38;18.10;99.90
1005;DHT22;491;53.480;10.174;2022-10-16T14:38:06;18.00;1.00
1005;DHT22;491;53.480;10.174;2022-10-16T14:40:36;17.90;99.90
1005;DHT22;491;53.480;10.174;2022-10-16T14:43:03;17.90;1.00
1005;DHT22;491;53.480;10.174;2022-10-16T14:45:34;17.90;1.00
1005;DHT22;491;53.480;10.174;2022-10-16T14:48:04;17.90;1.00
1005;DHT22;491;53.480;10.174;2022-10-16T14:50:31;17.80;1.00
1005;DHT22;491;53.480;10.174;2022-10-16T14:52:58;17.80;99.90
1005;DHT22;491;53.480;10.174;2022-10-16T14:55:24;17.80;99.90
1005;DHT22;491;53.480;10.174;2022-10-16T14:57:50;17.70;99.90
1005;DHT22;491;53.480;10.174;2022-10-16T15:00:22;17.60;1.00
1005;DHT22;491;53.480;10.174;2022-10-16T15:02:49;17.50;1.00
1005;DHT22;491;53.480;10.174;2022-10-16T15:05:25;17.40;1.00
1005;DHT22;491;53.480;10.174;2022-10-16T15:07:52;17.30;1.00
1005;DHT22;491;53.480;10.174;2022-10-16T15:10:20;17.20;99.90
1005;DHT22;491;53.480;10.174;2022-10-16T15:12:46;17.10;1.00
1005;DHT22;491;53.480;10.174;2022-10-16T15:15:33;17.00;1.00
1005;DHT22;491;53.480;10.174;2022-10-16T15:18:00;17.10;1.00
1005;DHT22;491;53.480;10.174;2022-10-16T15:20:33;17.10;1.00
1005;DHT22;491;53.480;10.174;2022-10-16T15:23:01;17.10;1.00
1005;DHT22;491;53.480;10.174;2022-10-16T15:27:53;17.00;1.00
1005;DHT22;491;53.480;10.174;2022-10-16T15:30:18;17.10;1.00
1005;DHT22;491;53.480;10.174;2022-10-16T15:32:44;17.20;1.00
1005;DHT22;491;53.480;10.174;2022-10-16T15:35:09;17.10;99.90
1005;DHT22;491;53.480;10.174;2022-10-16T15:37:35;17.00;1.00
1005;DHT22;491;53.480;10.174;2022-10-16T15:40:00;16.90;99.90
1005;DHT22;491;53.480;10.174;2022-10-16T15:42:26;16.80;99.90
1005;DHT22;491;53.480;10.174;2022-10-16T15:44:51;16.70;1.00
1005;DHT22;491;53.480;10.174;2022-10-16T15:47:17;16.50;1.00
1005;DHT22;491;53.480;10.174;2022-10-16T15:49:42;16.40;1.00
1005;DHT22;491;53.480;10.174;2022-10-16T15:52:08;16.10;99.90
1005;DHT22;491;53.480;10.174;2022-10-16T15:54:33;16.10;99.90
1005;DHT22;491;53.480;10.174;2022-10-16T15:56:59;15.90;1.00
1005;DHT22;491;53.480;10.174;2022-10-16T15:59:24;15.90;53.50
1005;DHT22;491;53.480;10.174;2022-10-16T16:01:50;16.00;99.90
1005;DHT22;491;53.480;10.174;2022-10-16T16:04:15;15.80;1.00
1005;DHT22;491;53.480;10.174;2022-10-16T16:06:42;15.60;1.00
1005;DHT22;491;53.480;10.174;2022-10-16T16:09:10;15.40;1.00
1005;DHT22;491;53.480;10.174;2022-10-16T16:11:36;15.30;1.00
1005;DHT22;491;53.480;10.174;2022-10-16T16:14:07;15.30;1.00
1005;DHT22;491;53.480;10.174;2022-10-16T16:16:33;15.20;1.00
1005;DHT22;491;53.480;10.174;2022-10-16T16:19:04;15.10;27.10
1005;DHT22;491;53.480;10.174;2022-10-16T16:21:31;14.90;88.30
1005;DHT22;491;53.480;10.174;2022-10-16T16:23:58;14.90;53.60
1005;DHT22;491;53.480;10.174;2022-10-16T16:26:25;14.80;97.40
1005;DHT22;491;53.480;10.174;2022-10-16T16:28:55;14.70;99.90
1005;DHT22;491;53.480;10.174;2022-10-16T16:31:24;14.60;99.90
1005;DHT22;491;53.480;10.174;2022-10-16T16:33:50;14.50;99.90
1005;DHT22;491;53.480;10.174;2022-10-16T16:36:17;14.40;99.90
1005;DHT22;491;53.480;10.174;2022-10-16T16:38:43;14.30;99.90
1005;DHT22;491;53.480;10.174;2022-10-16T16:41:35;14.20;99.90
1005;DHT22;491;53.480;10.174;2022-10-16T16:44:05;14.20;99.90
1005;DHT22;491;53.480;10.174;2022-10-16T16:46:32;14.10;99.90
1005;DHT22;491;53.480;10.174;2022-10-16T16:48:58;14.00;99.90
1005;DHT22;491;53.480;10.174;2022-10-16T16:51:24;13.90;99.90
1005;DHT22;491;53.480;10.174;2022-10-16T16:53:52;13.80;99.90
1005;DHT22;491;53.480;10.174;2022-10-16T16:56:19;13.70;99.90
1005;DHT22;491;53.480;10.174;2022-10-16T16:58:46;13.60;99.90
1005;DHT22;491;53.480;10.174;2022-10-16T17:01:12;13.50;99.90
1005;DHT22;491;53.480;10.174;2022-10-16T17:03:37;13.40;99.90
1005;DHT22;491;53.480;10.174;2022-10-16T17:06:05;13.40;99.90
1005;DHT22;491;53.480;10.174;2022-10-16T17:08:32;13.30;99.90
1005;DHT22;491;53.480;10.174;2022-10-16T17:10:57;13.20;99.90
1005;DHT22;491;53.480;10.174;2022-10-16T17:13:33;13.10;99.90
1005;DHT22;491;53.480;10.174;2022-10-16T17:16:01;13.00;99.90
1005;DHT22;491;53.480;10.174;2022-10-16T17:18:31;13.00;99.90
1005;DHT22;491;53.480;10.174;2022-10-16T17:21:02;12.90;99.90
1005;DHT22;491;53.480;10.174;2022-10-16T17:23:31;12.80;99.90
1005;DHT22;491;53.480;10.174;2022-10-16T17:26:05;12.80;99.90
1005;DHT22;491;53.480;10.174;2022-10-16T17:28:31;12.70;99.90
1005;DHT22;491;53.480;10.174;2022-10-16T17:31:20;12.70;99.90
1005;DHT22;491;53.480;10.174;2022-10-16T17:33:46;12.60;99.90
1005;DHT22;491;53.480;10.174;2022-10-16T17:36:12;12.60;99.90
1005;DHT22;491;53.480;10.174;2022-10-16T17:38:41;12.50;99.90
1005;DHT22;491;53.480;10.174;2022-10-16T17:41:15;12.50;99.90
1005;DHT22;491;53.480;10.174;2022-10-16T17:43:41;12.40;99.90